sensor_id;sensor_type;location;lat;lon;timestamp;pressure;altitude;pressure_sealevel;temperature
19102;BMP280;9683;49.028;12.064;2023-06-04T00:02:05;97316.03;;;19.84
19102;BMP280;9683;49.028;12.064;2023-06-04T00:04:32;97237.75;;;19.35
19102;BMP280;9683;49.028;12.064;2023-06-04T00:06:58;97318.78;;;19.79
19102;BMP280;9683;49.028;12.064;2023-06-04T00:09:25;97315.81;;;19.76
19102;BMP280;9683;49.028;12.064;2023-06-04T00:11:53;97316.09;;;19.74
19102;BMP280;9683;49.028;12.064;2023-06-04T00:14:19;97313.97;;;19.71
19102;BMP280;9683;49.028;12.064;2023-06-04T00:16:46;97308.84;;;19.70
19102;BMP280;9683;49.028;12.064;2023-06-04T00:19:12;97290.59;;;19.51
19102;BMP280;9683;49.028;12.064;2023-06-04T00:21:39;97264.78;;;19.25
19102;BMP280;9683;49.028;12.064;2023-06-04T00:24:06;97299.28;;;19.43
19102;BMP280;9683;49.028;12.064;2023-06-04T00:26:32;97294.13;;;19.42
19102;BMP280;9683;49.028;12.064;2023-06-04T00:29:00;97286.59;;;19.34
19102;BMP280;9683;49.028;12.064;2023-06-04T00:31:27;97289.06;;;19.30
19102;BMP280;9683;49.028;12.064;2023-06-04T00:33:54;97302.25;;;19.37
19102;BMP280;9683;49.028;12.064;2023-06-04T00:36:20;97267.81;;;19.18
19102;BMP280;9683;49.028;12.064;2023-06-04T00:38:47;97289.34;;;19.23
19102;BMP280;9683;49.028;12.064;2023-06-04T00:41:13;97302.59;;;19.20
19102;BMP280;9683;49.028;12.064;2023-06-04T00:43:40;97300.78;;;19.05
19102;BMP280;9683;49.028;12.064;2023-06-04T00:46:12;97284.38;;;18.92
19102;BMP280;9683;49.028;12.064;2023-06-04T00:48:43;97285.19;;;18.82
19102;BMP280;9683;49.028;12.064;2023-06-04T00:51:10;97304.03;;;18.97
19102;BMP280;9683;49.028;12.064;2023-06-04T00:53:37;97280.63;;;18.77
19102;BMP280;9683;49.028;12.064;2023-06-04T00:56:04;97302.69;;;18.95
19102;BMP280;9683;49.028;12.064;2023-06-04T00:58:31;97280.09;;;18.75
19102;BMP280;9683;49.028;12.064;2023-06-04T01:00:59;97269.06;;;18.67
19102;BMP280;9683;49.028;12.064;2023-06-04T01:03:31;97240.50;;;18.46
19102;BMP280;9683;49.028;12.064;2023-06-04T01:06:06;97306.50;;;18.84
19102;BMP280;9683;49.028;12.064;2023-06-04T01:08:34;97291.97;;;18.69
19102;BMP280;9683;49.028;12.064;2023-06-04T01:11:01;97299.25;;;18.69
19102;BMP280;9683;49.028;12.064;2023-06-04T01:13:28;97298.19;;;18.65
19102;BMP280;9683;49.028;12.064;2023-06-04T01:15:54;97308.44;;;18.68
19102;BMP280;9683;49.028;12.064;2023-06-04T01:18:26;97302.25;;;18.67
19102;BMP280;9683;49.028;12.064;2023-06-04T01:20:57;97306.00;;;18.66
19102;BMP280;9683;49.028;12.064;2023-06-04T01:23:31;97265.06;;;18.39
19102;BMP280;9683;49.028;12.064;2023-06-04T01:26:01;97298.47;;;18.58
19102;BMP280;9683;49.028;12.064;2023-06-04T01:28:29;97232.78;;;18.09
19102;BMP280;9683;49.028;12.064;2023-06-04T01:30:56;97294.97;;;18.43
19102;BMP280;9683;49.028;12.064;2023-06-04T01:33:25;97274.22;;;18.28
19102;BMP280;9683;49.028;12.064;2023-06-04T01:35:52;97303.84;;;18.48
19102;BMP280;9683;49.028;12.064;2023-06-04T01:38:20;97296.31;;;18.40
19102;BMP280;9683;49.028;12.064;2023-06-04T01:40:46;97298.75;;;18.37
19102;BMP280;9683;49.028;12.064;2023-06-04T01:43:13;97283.13;;;18.28
19102;BMP280;9683;49.028;12.064;2023-06-04T01:45:40;97290.94;;;18.25
19102;BMP280;9683;49.028;12.064;2023-06-04T01:48:06;97314.13;;;18.26
19102;BMP280;9683;49.028;12.064;2023-06-04T01:50:33;97300.09;;;18.19
19102;BMP280;9683;49.028;12.064;2023-06-04T01:52:59;97313.59;;;18.29
19102;BMP280;9683;49.028;12.064;2023-06-04T01:55:27;97286.91;;;18.07
19102;BMP280;9683;49.028;12.064;2023-06-04T01:57:58;97318.16;;;18.23
19102;BMP280;9683;49.028;12.064;2023-06-04T02:00:25;97273.97;;;17.99
19102;BMP280;9683;49.028;12.064;2023-06-04T02:02:52;97279.63;;;17.98
19102;BMP280;9683;49.028;12.064;2023-06-04T02:05:21;97282.34;;;17.93
19102;BMP280;9683;49.028;12.064;2023-06-04T02:07:47;97310.63;;;18.05
19102;BMP280;9683;49.028;12.064;2023-06-04T02:10:15;97311.16;;;18.02
19102;BMP280;9683;49.028;12.064;2023-06-04T02:12:54;97324.88;;;18.06
19102;BMP280;9683;49.028;12.064;2023-06-04T02:15:22;97319.22;;;18.02
19102;BMP280;9683;49.028;12.064;2023-06-04T02:17:48;97323.81;;;18.02
19102;BMP280;9683;49.028;12.064;2023-06-04T02:20:16;97326.50;;;18.02
19102;BMP280;9683;49.028;12.064;2023-06-04T02:22:42;97303.63;;;17.84
19102;BMP280;9683;49.028;12.064;2023-06-04T02:25:09;97312.22;;;17.86
19102;BMP280;9683;49.028;12.064;2023-06-04T02:27:36;97319.50;;;17.91
19102;BMP280;9683;49.028;12.064;2023-06-04T02:30:05;97329.75;;;17.89
19102;BMP280;9683;49.028;12.064;2023-06-04T02:32:32;97298.47;;;17.67
19102;BMP280;9683;49.028;12.064;2023-06-04T02:35:01;97329.47;;;17.80
19102;BMP280;9683;49.028;12.064;2023-06-04T02:37:28;97311.91;;;17.62
19102;BMP280;9683;49.028;12.064;2023-06-04T02:39:54;97299.19;;;17.48
19102;BMP280;9683;49.028;12.064;2023-06-04T02:42:21;97318.91;;;17.58
19102;BMP280;9683;49.028;12.064;2023-06-04T02:44:47;97315.09;;;17.49
19102;BMP280;9683;49.028;12.064;2023-06-04T02:47:15;97322.59;;;17.47
19102;BMP280;9683;49.028;12.064;2023-06-04T02:49:44;97333.66;;;17.46
19102;BMP280;9683;49.028;12.064;2023-06-04T02:52:10;97338.44;;;17.38
19102;BMP280;9683;49.028;12.064;2023-06-04T02:54:37;97332.78;;;17.35
19102;BMP280;9683;49.028;12.064;2023-06-04T02:57:04;97339.50;;;17.32
19102;BMP280;9683;49.028;12.064;2023-06-04T02:59:31;97332.22;;;17.23
19102;BMP280;9683;49.028;12.064;2023-06-04T03:01:58;97339.50;;;17.27
19102;BMP280;9683;49.028;12.064;2023-06-04T03:04:26;97340.28;;;17.23
19102;BMP280;9683;49.028;12.064;2023-06-04T03:06:59;97308.72;;;17.03
19102;BMP280;9683;49.028;12.064;2023-06-04T03:09:26;97344.59;;;17.24
19102;BMP280;9683;49.028;12.064;2023-06-04T03:11:53;97342.97;;;17.23
19102;BMP280;9683;49.028;12.064;2023-06-04T03:14:19;97334.88;;;17.13
19102;BMP280;9683;49.028;12.064;2023-06-04T03:16:46;97343.75;;;17.18
19102;BMP280;9683;49.028;12.064;2023-06-04T03:19:12;97344.00;;;17.12
19102;BMP280;9683;49.028;12.064;2023-06-04T03:21:40;97337.50;;;17.03
19102;BMP280;9683;49.028;12.064;2023-06-04T03:24:07;97346.41;;;17.08
19102;BMP280;9683;49.028;12.064;2023-06-04T03:26:34;97329.38;;;16.87
19102;BMP280;9683;49.028;12.064;2023-06-04T03:29:00;97353.91;;;17.06
19102;BMP280;9683;49.028;12.064;2023-06-04T03:31:27;97357.38;;;17.02
19102;BMP280;9683;49.028;12.064;2023-06-04T03:33:53;97349.56;;;16.95
19102;BMP280;9683;49.028;12.064;2023-06-04T03:36:20;97338.19;;;16.78
19102;BMP280;9683;49.028;12.064;2023-06-04T03:38:58;97368.88;;;16.87
19102;BMP280;9683;49.028;12.064;2023-06-04T03:41:24;97371.00;;;16.85
19102;BMP280;9683;49.028;12.064;2023-06-04T03:43:52;97357.22;;;16.71
19102;BMP280;9683;49.028;12.064;2023-06-04T03:46:18;97352.03;;;16.60
19102;BMP280;9683;49.028;12.064;2023-06-04T03:48:45;97363.53;;;16.55
19102;BMP280;9683;49.028;12.064;2023-06-04T03:51:12;97380.47;;;16.56
19102;BMP280;9683;49.028;12.064;2023-06-04T03:53:38;97293.06;;;16.06
19102;BMP280;9683;49.028;12.064;2023-06-04T03:56:06;97361.31;;;16.47
19102;BMP280;9683;49.028;12.064;2023-06-04T03:58:34;97358.78;;;16.30
19102;BMP280;9683;49.028;12.064;2023-06-04T04:01:01;97372.91;;;16.21
19102;BMP280;9683;49.028;12.064;2023-06-04T04:03:30;97369.63;;;16.14
19102;BMP280;9683;49.028;12.064;2023-06-04T04:05:56;97364.44;;;16.02
19102;BMP280;9683;49.028;12.064;2023-06-04T04:08:23;97366.31;;;16.01
19102;BMP280;9683;49.028;12.064;2023-06-04T04:10:51;97337.13;;;15.83
19102;BMP280;9683;49.028;12.064;2023-06-04T04:13:19;97373.66;;;16.11
19102;BMP280;9683;49.028;12.064;2023-06-04T04:15:45;97362.88;;;16.06
19102;BMP280;9683;49.028;12.064;2023-06-04T04:18:12;97341.22;;;15.91
19102;BMP280;9683;49.028;12.064;2023-06-04T04:20:38;97351.53;;;15.99
19102;BMP280;9683;49.028;12.064;2023-06-04T04:23:05;97378.00;;;16.17
19102;BMP280;9683;49.028;12.064;2023-06-04T04:25:33;97369.59;;;16.09
19102;BMP280;9683;49.028;12.064;2023-06-04T04:28:00;97376.06;;;16.08
19102;BMP280;9683;49.028;12.064;2023-06-04T04:30:28;97370.81;;;15.96
19102;BMP280;9683;49.028;12.064;2023-06-04T04:32:59;97347.03;;;15.78
19102;BMP280;9683;49.028;12.064;2023-06-04T04:35:25;97368.69;;;15.98
19102;BMP280;9683;49.028;12.064;2023-06-04T04:37:52;97385.22;;;16.12
19102;BMP280;9683;49.028;12.064;2023-06-04T04:40:19;97354.50;;;16.02
19102;BMP280;9683;49.028;12.064;2023-06-04T04:42:46;97381.28;;;16.24
19102;BMP280;9683;49.028;12.064;2023-06-04T04:45:12;97372.16;;;16.25
19102;BMP280;9683;49.028;12.064;2023-06-04T04:47:40;97372.50;;;16.34
19102;BMP280;9683;49.028;12.064;2023-06-04T04:50:07;97379.78;;;16.38
19102;BMP280;9683;49.028;12.064;2023-06-04T04:52:33;97366.31;;;16.33
19102;BMP280;9683;49.028;12.064;2023-06-04T04:55:00;97376.34;;;16.43
19102;BMP280;9683;49.028;12.064;2023-06-04T04:57:27;97373.00;;;16.31
19102;BMP280;9683;49.028;12.064;2023-06-04T04:59:53;97381.66;;;16.06
19102;BMP280;9683;49.028;12.064;2023-06-04T05:02:20;97374.22;;;15.86
19102;BMP280;9683;49.028;12.064;2023-06-04T05:04:48;97386.09;;;15.95
19102;BMP280;9683;49.028;12.064;2023-06-04T05:07:14;97386.56;;;15.87
19102;BMP280;9683;49.028;12.064;2023-06-04T05:09:41;97393.25;;;15.85
19102;BMP280;9683;49.028;12.064;2023-06-04T05:12:07;97393.44;;;15.78
19102;BMP280;9683;49.028;12.064;2023-06-04T05:14:34;97397.91;;;15.68
19102;BMP280;9683;49.028;12.064;2023-06-04T05:17:02;97387.63;;;15.59
19102;BMP280;9683;49.028;12.064;2023-06-04T05:19:29;97399.59;;;15.74
19102;BMP280;9683;49.028;12.064;2023-06-04T05:21:59;97394.97;;;15.69
19102;BMP280;9683;49.028;12.064;2023-06-04T05:24:26;97390.44;;;15.70
19102;BMP280;9683;49.028;12.064;2023-06-04T05:26:54;97395.63;;;15.81
19102;BMP280;9683;49.028;12.064;2023-06-04T05:29:22;97417.72;;;15.88
19102;BMP280;9683;49.028;12.064;2023-06-04T05:31:48;97389.41;;;15.76
19102;BMP280;9683;49.028;12.064;2023-06-04T05:34:15;97411.06;;;15.96
19102;BMP280;9683;49.028;12.064;2023-06-04T05:36:42;97414.97;;;15.83
19102;BMP280;9683;49.028;12.064;2023-06-04T05:39:10;97404.31;;;15.67
19102;BMP280;9683;49.028;12.064;2023-06-04T05:41:37;97405.06;;;15.62
19102;BMP280;9683;49.028;12.064;2023-06-04T05:44:04;97391.88;;;15.55
19102;BMP280;9683;49.028;12.064;2023-06-04T05:46:30;97423.78;;;15.79
19102;BMP280;9683;49.028;12.064;2023-06-04T05:48:57;97418.53;;;15.89
19102;BMP280;9683;49.028;12.064;2023-06-04T05:51:23;97421.00;;;15.95
19102;BMP280;9683;49.028;12.064;2023-06-04T05:53:50;97432.44;;;16.08
19102;BMP280;9683;49.028;12.064;2023-06-04T05:56:18;97425.56;;;16.22
19102;BMP280;9683;49.028;12.064;2023-06-04T05:58:51;97436.47;;;16.37
19102;BMP280;9683;49.028;12.064;2023-06-04T06:01:17;97424.44;;;16.44
19102;BMP280;9683;49.028;12.064;2023-06-04T06:03:44;97409.69;;;16.47
19102;BMP280;9683;49.028;12.064;2023-06-04T06:06:10;97427.63;;;16.68
19102;BMP280;9683;49.028;12.064;2023-06-04T06:08:37;97428.72;;;16.72
19102;BMP280;9683;49.028;12.064;2023-06-04T06:11:04;97436.63;;;16.89
19102;BMP280;9683;49.028;12.064;2023-06-04T06:13:32;97438.06;;;17.02
19102;BMP280;9683;49.028;12.064;2023-06-04T06:15:58;97436.47;;;17.06
19102;BMP280;9683;49.028;12.064;2023-06-04T06:18:25;97439.47;;;17.09
19102;BMP280;9683;49.028;12.064;2023-06-04T06:20:51;97451.31;;;17.13
19102;BMP280;9683;49.028;12.064;2023-06-04T06:23:18;97444.38;;;17.22
19102;BMP280;9683;49.028;12.064;2023-06-04T06:25:47;97445.47;;;17.21
19102;BMP280;9683;49.028;12.064;2023-06-04T06:28:15;97407.44;;;17.03
19102;BMP280;9683;49.028;12.064;2023-06-04T06:30:43;97425.22;;;17.14
19102;BMP280;9683;49.028;12.064;2023-06-04T06:33:09;97453.06;;;17.34
19102;BMP280;9683;49.028;12.064;2023-06-04T06:35:36;97458.47;;;17.39
19102;BMP280;9683;49.028;12.064;2023-06-04T06:38:03;97460.38;;;17.44
19102;BMP280;9683;49.028;12.064;2023-06-04T06:40:29;97441.78;;;17.37
19102;BMP280;9683;49.028;12.064;2023-06-04T06:42:56;97460.16;;;17.51
19102;BMP280;9683;49.028;12.064;2023-06-04T06:45:23;97422.94;;;17.32
19102;BMP280;9683;49.028;12.064;2023-06-04T06:47:51;97445.09;;;17.50
19102;BMP280;9683;49.028;12.064;2023-06-04T06:50:17;97466.16;;;17.68
19102;BMP280;9683;49.028;12.064;2023-06-04T06:52:44;97458.91;;;17.68
19102;BMP280;9683;49.028;12.064;2023-06-04T06:55:10;97466.16;;;17.68
19102;BMP280;9683;49.028;12.064;2023-06-04T06:57:37;97457.81;;;17.64
19102;BMP280;9683;49.028;12.064;2023-06-04T07:00:04;97438.84;;;17.44
19102;BMP280;9683;49.028;12.064;2023-06-04T07:02:32;97466.97;;;17.68
19102;BMP280;9683;49.028;12.064;2023-06-04T07:04:59;97456.22;;;17.68
19102;BMP280;9683;49.028;12.064;2023-06-04T07:07:26;97470.56;;;17.84
19102;BMP280;9683;49.028;12.064;2023-06-04T07:09:53;97466.00;;;17.90
19102;BMP280;9683;49.028;12.064;2023-06-04T07:12:19;97466.00;;;17.90
19102;BMP280;9683;49.028;12.064;2023-06-04T07:14:46;97457.91;;;17.90
19102;BMP280;9683;49.028;12.064;2023-06-04T07:17:13;97460.66;;;18.00
19102;BMP280;9683;49.028;12.064;2023-06-04T07:19:39;97453.34;;;17.95
19102;BMP280;9683;49.028;12.064;2023-06-04T07:22:07;97428.78;;;17.76
19102;BMP280;9683;49.028;12.064;2023-06-04T07:24:34;97465.75;;;17.96
19102;BMP280;9683;49.028;12.064;2023-06-04T07:27:00;97465.78;;;18.01
19102;BMP280;9683;49.028;12.064;2023-06-04T07:29:27;97463.63;;;18.08
19102;BMP280;9683;49.028;12.064;2023-06-04T07:31:53;97463.38;;;18.15
19102;BMP280;9683;49.028;12.064;2023-06-04T07:34:20;97456.13;;;18.20
19102;BMP280;9683;49.028;12.064;2023-06-04T07:36:47;97437.78;;;18.12
19102;BMP280;9683;49.028;12.064;2023-06-04T07:39:15;97456.69;;;18.32
19102;BMP280;9683;49.028;12.064;2023-06-04T07:41:41;97458.59;;;18.42
19102;BMP280;9683;49.028;12.064;2023-06-04T07:44:08;97454.53;;;18.45
19102;BMP280;9683;49.028;12.064;2023-06-04T07:46:34;97449.47;;;18.53
19102;BMP280;9683;49.028;12.064;2023-06-04T07:49:00;97451.34;;;18.58
19102;BMP280;9683;49.028;12.064;2023-06-04T07:51:27;97450.53;;;18.62
19102;BMP280;9683;49.028;12.064;2023-06-04T07:53:53;97450.56;;;18.67
19102;BMP280;9683;49.028;12.064;2023-06-04T07:56:22;97431.41;;;18.59
19102;BMP280;9683;49.028;12.064;2023-06-04T07:58:48;97378.50;;;18.27
19102;BMP280;9683;49.028;12.064;2023-06-04T08:01:15;97442.19;;;18.74
19102;BMP280;9683;49.028;12.064;2023-06-04T08:03:41;97426.81;;;18.69
19102;BMP280;9683;49.028;12.064;2023-06-04T08:06:09;97437.06;;;18.83
19102;BMP280;9683;49.028;12.064;2023-06-04T08:08:35;97438.69;;;18.89
19102;BMP280;9683;49.028;12.064;2023-06-04T08:11:02;97441.09;;;18.95
19102;BMP280;9683;49.028;12.064;2023-06-04T08:13:30;97437.56;;;18.95
19102;BMP280;9683;49.028;12.064;2023-06-04T08:15:56;97444.84;;;19.04
19102;BMP280;9683;49.028;12.064;2023-06-04T08:18:23;97436.47;;;19.11
19102;BMP280;9683;49.028;12.064;2023-06-04T08:20:49;97439.16;;;19.16
19102;BMP280;9683;49.028;12.064;2023-06-04T08:23:16;97446.19;;;19.22
19102;BMP280;9683;49.028;12.064;2023-06-04T08:25:43;97443.19;;;19.23
19102;BMP280;9683;49.028;12.064;2023-06-04T08:28:09;97444.25;;;19.28
19102;BMP280;9683;49.028;12.064;2023-06-04T08:30:37;97442.66;;;19.32
19102;BMP280;9683;49.028;12.064;2023-06-04T08:33:03;97449.91;;;19.36
19102;BMP280;9683;49.028;12.064;2023-06-04T08:35:30;97448.03;;;19.47
19102;BMP280;9683;49.028;12.064;2023-06-04T08:37:56;97448.03;;;19.52
19102;BMP280;9683;49.028;12.064;2023-06-04T08:40:24;97446.91;;;19.58
19102;BMP280;9683;49.028;12.064;2023-06-04T08:42:51;97452.03;;;19.64
19102;BMP280;9683;49.028;12.064;2023-06-04T08:45:20;97453.91;;;19.69
19102;BMP280;9683;49.028;12.064;2023-06-04T08:47:50;97450.38;;;19.74
19102;BMP280;9683;49.028;12.064;2023-06-04T08:50:18;97447.13;;;19.77
19102;BMP280;9683;49.028;12.064;2023-06-04T08:52:45;97435.81;;;19.70
19102;BMP280;9683;49.028;12.064;2023-06-04T08:55:13;97446.53;;;19.85
19102;BMP280;9683;49.028;12.064;2023-06-04T08:57:40;97441.94;;;19.90
19102;BMP280;9683;49.028;12.064;2023-06-04T09:00:08;97450.81;;;19.96
19102;BMP280;9683;49.028;12.064;2023-06-04T09:02:36;97432.19;;;19.89
19102;BMP280;9683;49.028;12.064;2023-06-04T09:05:05;97443.81;;;19.95
19102;BMP280;9683;49.028;12.064;2023-06-04T09:07:35;97448.34;;;19.99
19102;BMP280;9683;49.028;12.064;2023-06-04T09:10:02;97454.03;;;20.03
19102;BMP280;9683;49.028;12.064;2023-06-04T09:12:31;97448.63;;;20.03
19102;BMP280;9683;49.028;12.064;2023-06-04T09:14:58;97446.97;;;20.07
19102;BMP280;9683;49.028;12.064;2023-06-04T09:17:25;97443.44;;;20.11
19102;BMP280;9683;49.028;12.064;2023-06-04T09:19:51;97404.34;;;19.94
19102;BMP280;9683;49.028;12.064;2023-06-04T09:22:19;97436.06;;;20.22
19102;BMP280;9683;49.028;12.064;2023-06-04T09:24:47;97435.22;;;20.27
19102;BMP280;9683;49.028;12.064;2023-06-04T09:27:16;97437.09;;;20.36
19102;BMP280;9683;49.028;12.064;2023-06-04T09:29:49;97438.66;;;20.42
19102;BMP280;9683;49.028;12.064;2023-06-04T09:32:20;97434.84;;;20.48
19102;BMP280;9683;49.028;12.064;2023-06-04T09:34:47;97432.38;;;20.52
19102;BMP280;9683;49.028;12.064;2023-06-04T09:37:14;97428.59;;;20.53
19102;BMP280;9683;49.028;12.064;2023-06-04T09:39:42;97414.25;;;20.52
19102;BMP280;9683;49.028;12.064;2023-06-04T09:42:09;97425.28;;;20.61
19102;BMP280;9683;49.028;12.064;2023-06-04T09:44:43;97426.03;;;20.67
19102;BMP280;9683;49.028;12.064;2023-06-04T09:47:09;97427.16;;;20.66
19102;BMP280;9683;49.028;12.064;2023-06-04T09:49:40;97433.00;;;20.78
19102;BMP280;9683;49.028;12.064;2023-06-04T09:52:07;97425.91;;;20.82
19102;BMP280;9683;49.028;12.064;2023-06-04T09:54:35;97420.47;;;20.87
19102;BMP280;9683;49.028;12.064;2023-06-04T09:57:04;97430.13;;;20.93
19102;BMP280;9683;49.028;12.064;2023-06-04T09:59:33;97415.53;;;20.94
19102;BMP280;9683;49.028;12.064;2023-06-04T10:02:04;97422.50;;;21.00
19102;BMP280;9683;49.028;12.064;2023-06-04T10:04:32;97353.25;;;20.70
19102;BMP280;9683;49.028;12.064;2023-06-04T10:07:00;97395.19;;;20.96
19102;BMP280;9683;49.028;12.064;2023-06-04T10:09:27;97427.00;;;21.15
19102;BMP280;9683;49.028;12.064;2023-06-04T10:11:56;97411.56;;;21.15
19102;BMP280;9683;49.028;12.064;2023-06-04T10:14:31;97410.16;;;21.18
19102;BMP280;9683;49.028;12.064;2023-06-04T10:16:58;97406.63;;;21.17
19102;BMP280;9683;49.028;12.064;2023-06-04T10:19:25;97417.16;;;21.24
19102;BMP280;9683;49.028;12.064;2023-06-04T10:21:52;97414.66;;;21.27
19102;BMP280;9683;49.028;12.064;2023-06-04T10:24:19;97407.06;;;21.29
19102;BMP280;9683;49.028;12.064;2023-06-04T10:26:48;97382.22;;;21.22
19102;BMP280;9683;49.028;12.064;2023-06-04T10:29:16;97394.41;;;21.25
19102;BMP280;9683;49.028;12.064;2023-06-04T10:31:45;97413.22;;;21.35
19102;BMP280;9683;49.028;12.064;2023-06-04T10:34:12;97403.78;;;21.32
19102;BMP280;9683;49.028;12.064;2023-06-04T10:36:42;97393.75;;;21.33
19102;BMP280;9683;49.028;12.064;2023-06-04T10:39:10;97396.06;;;21.44
19102;BMP280;9683;49.028;12.064;2023-06-04T10:41:37;97412.75;;;21.52
19102;BMP280;9683;49.028;12.064;2023-06-04T10:44:03;97399.16;;;21.57
19102;BMP280;9683;49.028;12.064;2023-06-04T10:46:38;97400.72;;;21.63
19102;BMP280;9683;49.028;12.064;2023-06-04T10:49:08;97398.75;;;21.68
19102;BMP280;9683;49.028;12.064;2023-06-04T10:51:36;97399.78;;;21.72
19102;BMP280;9683;49.028;12.064;2023-06-04T10:54:03;97395.09;;;21.78
19102;BMP280;9683;49.028;12.064;2023-06-04T10:56:31;97382.41;;;21.73
19102;BMP280;9683;49.028;12.064;2023-06-04T10:58:59;97380.97;;;21.81
19102;BMP280;9683;49.028;12.064;2023-06-04T11:01:26;97372.91;;;21.76
19102;BMP280;9683;49.028;12.064;2023-06-04T11:03:54;97397.63;;;21.93
19102;BMP280;9683;49.028;12.064;2023-06-04T11:06:22;97370.31;;;21.84
19102;BMP280;9683;49.028;12.064;2023-06-04T11:09:01;97384.00;;;21.98
19102;BMP280;9683;49.028;12.064;2023-06-04T11:11:28;97366.53;;;21.85
19102;BMP280;9683;49.028;12.064;2023-06-04T11:13:55;97372.66;;;21.96
19102;BMP280;9683;49.028;12.064;2023-06-04T11:16:21;97372.94;;;21.94
19102;BMP280;9683;49.028;12.064;2023-06-04T11:18:54;97372.16;;;22.13
19102;BMP280;9683;49.028;12.064;2023-06-04T11:21:23;97395.88;;;22.21
19102;BMP280;9683;49.028;12.064;2023-06-04T11:23:55;97383.34;;;22.25
19102;BMP280;9683;49.028;12.064;2023-06-04T11:26:21;97366.34;;;22.19
19102;BMP280;9683;49.028;12.064;2023-06-04T11:28:51;97387.72;;;22.39
19102;BMP280;9683;49.028;12.064;2023-06-04T11:31:18;97373.94;;;22.36
19102;BMP280;9683;49.028;12.064;2023-06-04T11:33:45;97389.41;;;22.54
19102;BMP280;9683;49.028;12.064;2023-06-04T11:36:23;97395.56;;;22.60
19102;BMP280;9683;49.028;12.064;2023-06-04T11:38:57;97394.97;;;22.63
19102;BMP280;9683;49.028;12.064;2023-06-04T11:41:24;97395.69;;;22.68
19102;BMP280;9683;49.028;12.064;2023-06-04T11:43:51;97364.69;;;22.56
19102;BMP280;9683;49.028;12.064;2023-06-04T11:46:17;97386.16;;;22.71
19102;BMP280;9683;49.028;12.064;2023-06-04T11:48:45;97372.88;;;22.69
19102;BMP280;9683;49.028;12.064;2023-06-04T11:51:12;97388.13;;;22.84
19102;BMP280;9683;49.028;12.064;2023-06-04T11:53:40;97394.75;;;22.92
19102;BMP280;9683;49.028;12.064;2023-06-04T11:56:07;97401.22;;;22.96
19102;BMP280;9683;49.028;12.064;2023-06-04T11:58:34;97380.78;;;22.98
19102;BMP280;9683;49.028;12.064;2023-06-04T12:01:01;97391.75;;;23.07
19102;BMP280;9683;49.028;12.064;2023-06-04T12:03:33;97386.25;;;23.12
19102;BMP280;9683;49.028;12.064;2023-06-04T12:06:09;97377.38;;;23.20
19102;BMP280;9683;49.028;12.064;2023-06-04T12:08:46;97372.16;;;23.23
19102;BMP280;9683;49.028;12.064;2023-06-04T12:11:25;97374.47;;;23.30
19102;BMP280;9683;49.028;12.064;2023-06-04T12:13:53;97353.03;;;23.28
19102;BMP280;9683;49.028;12.064;2023-06-04T12:16:20;97372.00;;;23.47
19102;BMP280;9683;49.028;12.064;2023-06-04T12:18:46;97374.31;;;23.54
19102;BMP280;9683;49.028;12.064;2023-06-04T12:21:20;97368.47;;;23.60
19102;BMP280;9683;49.028;12.064;2023-06-04T12:23:48;97362.59;;;23.67
19102;BMP280;9683;49.028;12.064;2023-06-04T12:26:22;97369.13;;;23.80
19102;BMP280;9683;49.028;12.064;2023-06-04T12:28:59;97370.31;;;23.87
19102;BMP280;9683;49.028;12.064;2023-06-04T12:31:26;97368.31;;;23.93
19102;BMP280;9683;49.028;12.064;2023-06-04T12:33:58;97365.38;;;24.03
19102;BMP280;9683;49.028;12.064;2023-06-04T12:36:25;97365.44;;;24.11
19102;BMP280;9683;49.028;12.064;2023-06-04T12:38:58;97357.34;;;24.20
19102;BMP280;9683;49.028;12.064;2023-06-04T12:41:26;97359.16;;;24.25
19102;BMP280;9683;49.028;12.064;2023-06-04T12:43:52;97354.69;;;24.29
19102;BMP280;9683;49.028;12.064;2023-06-04T12:46:19;97352.50;;;24.31
19102;BMP280;9683;49.028;12.064;2023-06-04T12:48:47;97350.41;;;24.28
19102;BMP280;9683;49.028;12.064;2023-06-04T12:51:13;97344.16;;;24.27
19102;BMP280;9683;49.028;12.064;2023-06-04T12:53:40;97341.59;;;24.31
19102;BMP280;9683;49.028;12.064;2023-06-04T12:56:08;97298.47;;;24.02
19102;BMP280;9683;49.028;12.064;2023-06-04T12:58:35;97342.28;;;24.36
19102;BMP280;9683;49.028;12.064;2023-06-04T13:01:02;97338.13;;;24.39
19102;BMP280;9683;49.028;12.064;2023-06-04T13:03:29;97306.53;;;24.29
19102;BMP280;9683;49.028;12.064;2023-06-04T13:05:56;97345.84;;;24.67
19102;BMP280;9683;49.028;12.064;2023-06-04T13:08:23;97329.03;;;24.65
19102;BMP280;9683;49.028;12.064;2023-06-04T13:10:51;97333.03;;;24.68
19102;BMP280;9683;49.028;12.064;2023-06-04T13:13:19;97344.78;;;24.77
19102;BMP280;9683;49.028;12.064;2023-06-04T13:15:46;97335.19;;;24.80
19102;BMP280;9683;49.028;12.064;2023-06-04T13:18:13;97335.59;;;24.87
19102;BMP280;9683;49.028;12.064;2023-06-04T13:20:40;97329.38;;;24.95
19102;BMP280;9683;49.028;12.064;2023-06-04T13:23:07;97332.28;;;24.98
19102;BMP280;9683;49.028;12.064;2023-06-04T13:25:34;97331.19;;;25.08
19102;BMP280;9683;49.028;12.064;2023-06-04T13:28:01;97338.59;;;25.16
19102;BMP280;9683;49.028;12.064;2023-06-04T13:30:29;97313.09;;;25.12
19102;BMP280;9683;49.028;12.064;2023-06-04T13:32:56;97326.78;;;25.29
19102;BMP280;9683;49.028;12.064;2023-06-04T13:35:23;97302.84;;;25.18
19102;BMP280;9683;49.028;12.064;2023-06-04T13:37:50;97323.13;;;25.42
19102;BMP280;9683;49.028;12.064;2023-06-04T13:40:16;97339.09;;;25.58
19102;BMP280;9683;49.028;12.064;2023-06-04T13:42:43;97328.50;;;25.65
19102;BMP280;9683;49.028;12.064;2023-06-04T13:45:10;97327.88;;;25.76
19102;BMP280;9683;49.028;12.064;2023-06-04T13:47:38;97307.31;;;25.70
19102;BMP280;9683;49.028;12.064;2023-06-04T13:50:05;97329.19;;;25.87
19102;BMP280;9683;49.028;12.064;2023-06-04T13:52:32;97280.84;;;25.71
19102;BMP280;9683;49.028;12.064;2023-06-04T13:54:58;97323.38;;;26.06
19102;BMP280;9683;49.028;12.064;2023-06-04T13:57:25;97328.69;;;26.11
19102;BMP280;9683;49.028;12.064;2023-06-04T13:59:52;97325.31;;;26.14
19102;BMP280;9683;49.028;12.064;2023-06-04T14:02:18;97324.53;;;26.22
19102;BMP280;9683;49.028;12.064;2023-06-04T14:04:46;97292.41;;;26.11
19102;BMP280;9683;49.028;12.064;2023-06-04T14:07:13;97322.13;;;26.38
19102;BMP280;9683;49.028;12.064;2023-06-04T14:09:40;97325.97;;;26.45
19102;BMP280;9683;49.028;12.064;2023-06-04T14:12:08;97303.97;;;26.42